Time;durP1;ratioP1;P1;durP2;ratioP2;P2;SDS_P1;SDS_P2;PMS_P1;PMS_P2;Temp;Humidity;BMP_temperature;BMP_pressure;BME280_temperature;BME280_humidity;BME280_pressure;Samples;Min_cycle;Max_cycle;Signal;HPM_P1;HPM_P2
2022/03/08 00:01:55;;;;;;;13.00;7.65;;;3.60;47.90;;;;;;5052101;28;20114;-46
2022/03/08 00:04:24;;;;;;;8.75;6.55;;;3.70;47.90;;;;;;5035667;28;20120;-49
2022/03/08 00:06:50;;;;;;;12.27;7.70;;;3.60;47.80;;;;;;5032630;28;20049;-45
2022/03/08 00:09:17;;;;;;;10.85;7.78;;;3.70;47.80;;;;;;5032585;28;20034;-47
2022/03/08 00:11:44;;;;;;;10.75;6.50;;;3.70;47.80;;;;;;5032472;28;20041;-44
2022/03/08 00:14:11;;;;;;;10.48;7.05;;;3.70;47.70;;;;;;5029242;28;20044;-48
2022/03/08 00:16:38;;;;;;;8.05;6.07;;;3.70;47.70;;;;;;5041061;28;20468;-47
2022/03/08 00:19:06;;;;;;;8.82;6.13;;;3.80;47.70;;;;;;5044152;28;20043;-45
2022/03/08 00:21:33;;;;;;;9.05;7.05;;;3.80;47.60;;;;;;5047948;28;20420;-47
2022/03/08 00:24:00;;;;;;;9.00;6.70;;;3.90;47.60;;;;;;5035283;28;20551;-46
2022/03/08 00:26:29;;;;;;;10.63;6.55;;;3.90;47.60;;;;;;5044548;28;20471;-47
2022/03/08 00:28:56;;;;;;;11.93;6.85;;;3.90;47.50;;;;;;5042136;28;20045;-45
2022/03/08 00:31:22;;;;;;;10.15;6.45;;;3.90;47.50;;;;;;5030104;28;20034;-46
2022/03/08 00:33:52;;;;;;;8.75;6.10;;;4.00;47.40;;;;;;5029972;28;20045;-47
2022/03/08 00:36:18;;;;;;;8.45;6.70;;;4.00;47.40;;;;;;5043693;28;20099;-46
2022/03/08 00:38:45;;;;;;;9.20;6.50;;;4.00;47.30;;;;;;5037870;28;20045;-48
2022/03/08 00:41:12;;;;;;;8.38;6.07;;;4.00;47.20;;;;;;5050953;22;20047;-53
2022/03/08 00:43:39;;;;;;;9.73;6.65;;;4.10;47.30;;;;;;5086697;28;20032;-44
2022/03/08 00:46:05;;;;;;;9.75;6.43;;;4.10;47.20;;;;;;5082466;28;20048;-48
2022/03/08 00:48:34;;;;;;;9.50;5.63;;;4.10;47.10;;;;;;5091813;28;20039;-45
2022/03/08 00:51:00;;;;;;;8.50;5.97;;;4.20;47.10;;;;;;5086025;28;20040;-51
2022/03/08 00:53:27;;;;;;;9.35;6.28;;;4.20;47.10;;;;;;5071148;28;20048;-44
2022/03/08 00:55:54;;;;;;;7.90;5.75;;;4.20;47.10;;;;;;5067848;28;20071;-45
2022/03/08 00:58:21;;;;;;;7.72;5.78;;;4.20;47.00;;;;;;5069841;28;20050;-45
2022/03/08 01:00:48;;;;;;;8.63;6.13;;;4.20;46.90;;;;;;5071245;28;20048;-44
2022/03/08 01:03:18;;;;;;;8.77;5.97;;;4.30;46.90;;;;;;5074711;28;20432;-44
2022/03/08 01:05:47;;;;;;;11.02;6.03;;;4.30;46.90;;;;;;5058929;28;20618;-45
2022/03/08 01:08:14;;;;;;;7.57;5.93;;;4.30;47.00;;;;;;5070412;28;20105;-44
2022/03/08 01:10:41;;;;;;;9.48;5.93;;;4.30;46.90;;;;;;5067198;28;20036;-44
2022/03/08 01:13:08;;;;;;;9.32;6.75;;;4.30;46.90;;;;;;5084105;28;20039;-48
2022/03/08 01:15:35;;;;;;;8.82;6.45;;;4.30;46.90;;;;;;5066480;28;20041;-44
2022/03/08 01:18:02;;;;;;;8.27;6.55;;;4.30;46.80;;;;;;5074778;28;20066;-44
2022/03/08 01:20:29;;;;;;;8.95;6.18;;;4.40;46.90;;;;;;5060840;28;20157;-44
2022/03/08 01:22:56;;;;;;;9.20;5.97;;;4.30;46.80;;;;;;5077954;28;20032;-46
2022/03/08 01:25:24;;;;;;;7.55;6.75;;;4.30;46.70;;;;;;5063834;28;20041;-47
2022/03/08 01:27:53;;;;;;;8.65;6.35;;;4.30;46.70;;;;;;5071039;28;20033;-45
2022/03/08 01:30:22;;;;;;;7.85;5.57;;;4.30;46.80;;;;;;5061573;28;20045;-47
2022/03/08 01:32:51;;;;;;;10.27;6.78;;;4.30;46.80;;;;;;5066818;28;20052;-43
2022/03/08 01:35:19;;;;;;;8.65;6.72;;;4.30;46.80;;;;;;5080356;28;20048;-47
2022/03/08 01:37:46;;;;;;;8.38;5.90;;;4.30;46.80;;;;;;5068321;28;20068;-43
2022/03/08 01:40:15;;;;;;;9.73;6.32;;;4.30;46.70;;;;;;5079460;28;20075;-46
2022/03/08 01:42:49;;;;;;;8.98;6.47;;;4.20;46.90;;;;;;5060604;28;20047;-48
2022/03/08 01:45:21;;;;;;;9.80;5.85;;;4.20;47.00;;;;;;5070468;28;20044;-45
2022/03/08 01:47:49;;;;;;;11.38;6.85;;;4.20;46.90;;;;;;5072124;28;20059;-47
2022/03/08 01:50:16;;;;;;;11.27;6.25;;;4.10;46.80;;;;;;5069548;28;20092;-44
2022/03/08 01:52:43;;;;;;;9.25;5.60;;;4.10;46.90;;;;;;5064425;28;20496;-46
2022/03/08 01:55:12;;;;;;;7.78;6.18;;;4.00;46.90;;;;;;5070536;28;20075;-50
2022/03/08 01:57:39;;;;;;;8.60;6.05;;;4.00;47.10;;;;;;5070007;28;20040;-46
2022/03/08 02:00:11;;;;;;;8.45;5.72;;;4.00;47.10;;;;;;5073573;28;20044;-43
2022/03/08 02:02:39;;;;;;;10.70;6.73;;;3.90;47.20;;;;;;5062032;28;20041;-45
2022/03/08 02:05:06;;;;;;;9.63;6.57;;;3.80;47.10;;;;;;5049975;28;20037;-46
2022/03/08 02:07:33;;;;;;;10.50;6.35;;;3.80;47.20;;;;;;5069927;28;20553;-46
2022/03/08 02:10:00;;;;;;;10.35;6.20;;;3.80;47.40;;;;;;5062773;28;20032;-48
2022/03/08 02:12:30;;;;;;;9.00;6.20;;;3.70;47.40;;;;;;5049396;28;20047;-44
2022/03/08 02:14:57;;;;;;;8.63;5.95;;;3.60;47.50;;;;;;5072557;28;20068;-51
2022/03/08 02:17:23;;;;;;;8.35;6.35;;;3.60;47.60;;;;;;5072075;28;20561;-44
2022/03/08 02:19:56;;;;;;;7.95;5.60;;;3.60;47.80;;;;;;5065796;28;20040;-44
2022/03/08 02:22:23;;;;;;;8.40;6.90;;;3.50;47.80;;;;;;5069928;28;20041;-43
2022/03/08 02:24:50;;;;;;;10.13;6.88;;;3.50;47.90;;;;;;5066692;28;20033;-45
2022/03/08 02:27:17;;;;;;;8.13;5.80;;;3.40;48.00;;;;;;5076004;28;20052;-43
2022/03/08 02:29:44;;;;;;;7.85;6.00;;;3.40;48.00;;;;;;5061010;28;20508;-46
2022/03/08 02:32:11;;;;;;;8.23;6.35;;;3.40;48.20;;;;;;5049790;28;20064;-43
2022/03/08 02:34:38;;;;;;;8.68;5.82;;;3.30;48.30;;;;;;5056085;28;20087;-44
2022/03/08 02:37:11;;;;;;;9.20;6.15;;;3.30;48.30;;;;;;5067815;28;20539;-46
2022/03/08 02:39:39;;;;;;;9.57;6.00;;;3.30;48.50;;;;;;5069812;28;20439;-45
2022/03/08 02:42:09;;;;;;;9.70;5.88;;;3.20;48.50;;;;;;5067428;28;20113;-44
2022/03/08 02:44:36;;;;;;;11.57;6.53;;;3.20;48.70;;;;;;5077187;28;20032;-43
2022/03/08 02:47:04;;;;;;;8.45;5.45;;;3.10;48.70;;;;;;5061359;28;20045;-48
2022/03/08 02:49:32;;;;;;;11.48;6.60;;;3.10;48.80;;;;;;5068163;28;20044;-44
2022/03/08 02:52:00;;;;;;;8.88;5.75;;;3.10;49.10;;;;;;5076818;28;20488;-44
2022/03/08 02:54:26;;;;;;;9.52;6.40;;;3.10;49.10;;;;;;5070585;28;20044;-47
2022/03/08 02:56:54;;;;;;;8.38;6.07;;;3.10;49.10;;;;;;5063699;28;20523;-46
2022/03/08 02:59:24;;;;;;;9.93;6.57;;;3.00;49.20;;;;;;5070307;28;20076;-44
2022/03/08 03:01:51;;;;;;;7.10;6.35;;;3.10;49.50;;;;;;5064246;28;20063;-47
2022/03/08 03:04:17;;;;;;;8.38;6.05;;;3.00;49.30;;;;;;5077233;28;20059;-45
2022/03/08 03:06:44;;;;;;;10.77;6.18;;;3.00;49.40;;;;;;5060102;28;20083;-48
2022/03/08 03:09:12;;;;;;;8.63;6.03;;;3.00;49.40;;;;;;5069614;28;20463;-51
2022/03/08 03:11:39;;;;;;;8.52;6.38;;;3.00;49.50;;;;;;5064079;28;20484;-44
2022/03/08 03:14:06;;;;;;;8.63;6.50;;;3.00;49.50;;;;;;5077886;28;20051;-45
2022/03/08 03:16:35;;;;;;;8.52;5.90;;;3.00;49.50;;;;;;5064100;28;20049;-48
2022/03/08 03:19:03;;;;;;;8.48;6.05;;;3.00;49.60;;;;;;5053190;28;20040;-47
2022/03/08 03:21:30;;;;;;;8.98;5.88;;;3.00;49.60;;;;;;5061052;28;20048;-49
2022/03/08 03:23:56;;;;;;;9.13;5.80;;;2.90;49.60;;;;;;5065765;28;20040;-48
2022/03/08 03:26:23;;;;;;;9.80;6.97;;;2.90;49.70;;;;;;5064034;28;20033;-45
2022/03/08 03:28:50;;;;;;;7.32;5.72;;;2.90;49.70;;;;;;5068226;28;20095;-44
2022/03/08 03:31:18;;;;;;;8.85;5.80;;;2.90;49.80;;;;;;5065166;28;20103;-45
2022/03/08 03:33:45;;;;;;;9.85;6.43;;;2.80;49.80;;;;;;5066429;28;20503;-46
2022/03/08 03:36:12;;;;;;;7.93;5.80;;;2.80;49.90;;;;;;5061873;28;20462;-44
2022/03/08 03:38:39;;;;;;;8.95;5.95;;;2.80;50.00;;;;;;5063066;28;20554;-48
2022/03/08 03:41:08;;;;;;;8.90;5.80;;;2.80;50.00;;;;;;5066022;28;20098;-45
2022/03/08 03:43:35;;;;;;;8.95;6.20;;;2.70;50.10;;;;;;5071031;28;20115;-44
2022/03/08 03:46:02;;;;;;;7.80;5.97;;;2.70;50.20;;;;;;5070645;28;20436;-46
2022/03/08 03:48:30;;;;;;;9.10;6.88;;;2.70;50.30;;;;;;5071961;28;20071;-44
2022/03/08 03:50:57;;;;;;;10.85;6.03;;;2.70;50.40;;;;;;5069290;28;20037;-46
2022/03/08 03:53:24;;;;;;;8.65;5.90;;;2.70;50.40;;;;;;5064324;28;20115;-46
2022/03/08 03:55:51;;;;;;;7.45;6.00;;;2.70;50.40;;;;;;5071710;28;20052;-44
2022/03/08 03:58:20;;;;;;;9.40;5.93;;;2.70;50.40;;;;;;5071029;28;20454;-44
2022/03/08 04:00:47;;;;;;;8.88;5.97;;;2.80;50.60;;;;;;5081529;28;20047;-44
2022/03/08 04:03:15;;;;;;;7.50;6.30;;;2.70;50.50;;;;;;5065485;28;20471;-44
2022/03/08 04:05:43;;;;;;;7.18;5.28;;;2.70;50.50;;;;;;5052790;28;20055;-44
2022/03/08 04:08:14;;;;;;;8.02;5.70;;;2.80;50.50;;;;;;5057219;28;20048;-46
2022/03/08 04:10:41;;;;;;;12.65;6.35;;;2.80;50.50;;;;;;5064925;28;20032;-47
2022/03/08 04:13:08;;;;;;;9.38;5.72;;;2.80;50.60;;;;;;5062508;28;20055;-45
2022/03/08 04:15:37;;;;;;;8.23;5.72;;;2.80;50.50;;;;;;5065100;28;20048;-45
2022/03/08 04:18:04;;;;;;;6.93;5.40;;;2.90;50.50;;;;;;5052613;28;20045;-46
2022/03/08 04:20:31;;;;;;;7.10;5.90;;;2.90;50.50;;;;;;5052648;28;20110;-44
2022/03/08 04:22:57;;;;;;;8.20;6.13;;;2.90;50.40;;;;;;5051938;28;20103;-45
2022/03/08 04:25:25;;;;;;;8.43;6.30;;;2.90;50.40;;;;;;5051022;28;20041;-47
2022/03/08 04:27:57;;;;;;;7.68;6.25;;;2.90;50.40;;;;;;5066578;28;20044;-48
2022/03/08 04:30:25;;;;;;;6.38;5.63;;;3.00;50.40;;;;;;5069598;28;20045;-44
2022/03/08 04:32:52;;;;;;;8.23;5.75;;;3.00;50.40;;;;;;5068604;28;20528;-44
2022/03/08 04:35:19;;;;;;;8.63;5.43;;;3.00;50.30;;;;;;5069920;28;20037;-47
2022/03/08 04:37:46;;;;;;;7.78;5.93;;;3.00;50.20;;;;;;5075028;28;20407;-44
2022/03/08 04:40:13;;;;;;;7.97;6.22;;;3.00;50.30;;;;;;5071800;28;20499;-47
2022/03/08 04:42:41;;;;;;;7.85;6.03;;;3.00;50.30;;;;;;5071544;28;20075;-46
2022/03/08 04:45:10;;;;;;;9.93;6.10;;;3.00;50.30;;;;;;5070593;28;20036;-44
2022/03/08 04:47:38;;;;;;;8.05;5.75;;;3.00;50.30;;;;;;5080071;28;20067;-45
2022/03/08 04:50:07;;;;;;;9.18;6.00;;;3.00;50.30;;;;;;5065325;28;20104;-46
2022/03/08 04:52:34;;;;;;;6.50;4.90;;;3.00;50.50;;;;;;5071351;28;20052;-48
2022/03/08 04:55:03;;;;;;;7.38;5.63;;;3.00;50.40;;;;;;5069340;28;20496;-45
2022/03/08 04:57:30;;;;;;;8.75;5.28;;;3.00;50.40;;;;;;5077467;28;20024;-45
2022/03/08 04:59:59;;;;;;;7.07;5.75;;;3.10;50.50;;;;;;5063349;28;20102;-44
2022/03/08 05:02:30;;;;;;;8.48;6.75;;;3.00;50.50;;;;;;5069106;28;20048;-45
2022/03/08 05:04:57;;;;;;;6.95;5.30;;;3.10;50.70;;;;;;5055750;28;20443;-45
2022/03/08 05:07:24;;;;;;;8.15;6.28;;;3.10;50.60;;;;;;5066607;28;20041;-45
2022/03/08 05:09:51;;;;;;;8.02;5.97;;;3.10;50.50;;;;;;5066546;28;20462;-44
2022/03/08 05:12:17;;;;;;;8.00;5.13;;;3.10;50.60;;;;;;5067833;28;20064;-50
2022/03/08 05:14:47;;;;;;;7.30;5.57;;;3.10;50.50;;;;;;5075287;28;20040;-48
2022/03/08 05:17:13;;;;;;;7.97;5.95;;;3.20;50.60;;;;;;5059299;28;20064;-45
2022/03/08 05:19:40;;;;;;;9.20;6.20;;;3.10;50.50;;;;;;5051685;28;20095;-45
2022/03/08 05:22:07;;;;;;;9.48;5.85;;;3.10;50.50;;;;;;5066162;28;20044;-45
2022/03/08 05:24:34;;;;;;;7.03;4.97;;;3.20;50.50;;;;;;5071889;28;20045;-45
2022/03/08 05:27:01;;;;;;;7.90;5.72;;;3.10;50.40;;;;;;5056713;28;20033;-45
2022/03/08 05:29:28;;;;;;;8.80;5.90;;;3.10;50.40;;;;;;5060405;28;20032;-45
2022/03/08 05:31:54;;;;;;;14.93;6.20;;;3.20;50.50;;;;;;5062333;28;20086;-47
2022/03/08 05:34:21;;;;;;;9.18;5.22;;;3.20;50.40;;;;;;5064273;28;20123;-50
2022/03/08 05:36:48;;;;;;;7.10;5.40;;;3.20;50.40;;;;;;5060008;28;20053;-46
2022/03/08 05:39:14;;;;;;;7.45;5.78;;;3.20;50.40;;;;;;5065470;28;20036;-46
2022/03/08 05:41:41;;;;;;;10.63;6.10;;;3.20;50.50;;;;;;5064029;28;20037;-43
2022/03/08 05:44:08;;;;;;;7.63;5.68;;;3.20;50.40;;;;;;5066202;28;20045;-46
2022/03/08 05:46:35;;;;;;;7.25;5.35;;;3.20;50.30;;;;;;5060037;28;20051;-44
2022/03/08 05:49:03;;;;;;;10.65;6.30;;;3.20;50.40;;;;;;5052726;28;20041;-51
2022/03/08 05:51:30;;;;;;;6.25;5.13;;;3.30;50.50;;;;;;5059074;28;20040;-53
2022/03/08 05:53:57;;;;;;;7.57;5.65;;;3.30;50.50;;;;;;5062910;28;20071;-44
2022/03/08 05:56:24;;;;;;;7.93;5.10;;;3.30;50.50;;;;;;5059133;28;20113;-44
2022/03/08 05:58:50;;;;;;;10.38;5.85;;;3.30;50.40;;;;;;5063320;28;20110;-45
2022/03/08 06:01:17;;;;;;;8.07;5.65;;;3.30;50.30;;;;;;5063635;28;20036;-46
2022/03/08 06:03:44;;;;;;;7.90;5.60;;;3.30;50.30;;;;;;5059436;28;20041;-44
2022/03/08 06:06:12;;;;;;;7.65;5.70;;;3.30;50.20;;;;;;5061399;28;20040;-44
2022/03/08 06:08:40;;;;;;;7.68;5.57;;;3.30;50.30;;;;;;5069754;28;20071;-45
2022/03/08 06:11:07;;;;;;;7.47;5.72;;;3.30;50.20;;;;;;5066100;28;20099;-44
2022/03/08 06:13:34;;;;;;;7.28;5.57;;;3.30;50.30;;;;;;5084030;28;20044;-47
2022/03/08 06:16:01;;;;;;;7.18;5.55;;;3.30;50.30;;;;;;5062570;28;20049;-46
2022/03/08 06:18:28;;;;;;;6.65;5.32;;;3.30;50.30;;;;;;5068550;28;20036;-44
2022/03/08 06:20:55;;;;;;;8.60;5.22;;;3.30;50.30;;;;;;5064522;28;20036;-45
2022/03/08 06:23:22;;;;;;;6.43;4.75;;;3.40;50.40;;;;;;5062833;28;20102;-44
2022/03/08 06:25:49;;;;;;;9.73;5.85;;;3.30;50.20;;;;;;5061344;28;20043;-47
2022/03/08 06:28:18;;;;;;;7.55;6.30;;;3.40;50.20;;;;;;5053536;28;20166;-46
2022/03/08 06:30:45;;;;;;;9.25;6.18;;;3.40;50.30;;;;;;5060796;28;20044;-44
2022/03/08 06:33:12;;;;;;;9.50;5.85;;;3.40;50.20;;;;;;5065893;28;20147;-48
2022/03/08 06:35:39;;;;;;;7.55;5.63;;;3.40;50.20;;;;;;5071330;28;20404;-44
2022/03/08 06:38:06;;;;;;;6.82;5.95;;;3.40;50.20;;;;;;5066207;28;20114;-50
2022/03/08 06:40:33;;;;;;;7.95;6.05;;;3.50;50.20;;;;;;5069250;28;20040;-44
2022/03/08 06:43:00;;;;;;;9.27;6.63;;;3.50;50.20;;;;;;5052239;28;20041;-49
2022/03/08 06:45:26;;;;;;;6.85;5.50;;;3.60;50.20;;;;;;5055559;28;20045;-45
2022/03/08 06:47:55;;;;;;;7.05;5.72;;;3.60;50.10;;;;;;5078095;28;20129;-44
2022/03/08 06:50:22;;;;;;;11.00;5.68;;;3.60;50.20;;;;;;5077713;28;20550;-49
2022/03/08 06:52:50;;;;;;;7.25;5.88;;;3.60;50.00;;;;;;5062613;28;20048;-45
2022/03/08 06:55:16;;;;;;;7.38;5.75;;;3.70;50.00;;;;;;5070420;28;20118;-45
2022/03/08 06:57:43;;;;;;;8.63;5.90;;;3.70;50.00;;;;;;5072941;28;20054;-47
2022/03/08 07:00:11;;;;;;;8.45;6.97;;;3.70;50.60;;;;;;5075478;28;20048;-45
2022/03/08 07:02:37;;;;;;;8.07;5.55;;;3.80;49.90;;;;;;5074989;28;20074;-44
2022/03/08 07:05:04;;;;;;;9.43;6.28;;;3.80;49.90;;;;;;5084385;28;20462;-44
2022/03/08 07:07:33;;;;;;;7.65;5.85;;;3.80;49.80;;;;;;5067753;28;20118;-44
2022/03/08 07:10:00;;;;;;;6.65;5.88;;;3.90;49.80;;;;;;5074781;28;20496;-44
2022/03/08 07:12:27;;;;;;;8.27;5.55;;;3.90;50.30;;;;;;5051560;28;20072;-44
2022/03/08 07:14:54;;;;;;;8.75;5.90;;;3.90;49.70;;;;;;5065530;28;20035;-45
2022/03/08 07:17:20;;;;;;;6.95;5.55;;;4.00;49.70;;;;;;5075313;28;20078;-48
2022/03/08 07:19:47;;;;;;;6.63;5.07;;;4.00;49.60;;;;;;5071152;28;20047;-44
2022/03/08 07:22:17;;;;;;;6.57;5.57;;;4.10;49.60;;;;;;5052200;28;20057;-45
2022/03/08 07:24:43;;;;;;;8.00;5.90;;;4.10;49.50;;;;;;5057486;28;20065;-45
2022/03/08 07:27:10;;;;;;;8.30;5.75;;;4.10;49.60;;;;;;5069661;28;20044;-46
2022/03/08 07:29:39;;;;;;;7.90;5.93;;;4.10;49.50;;;;;;5050920;28;20045;-44
2022/03/08 07:32:06;;;;;;;9.98;6.95;;;4.20;49.40;;;;;;5051699;28;20491;-44
2022/03/08 07:34:33;;;;;;;8.35;5.55;;;4.20;49.40;;;;;;5047215;28;20048;-45
2022/03/08 07:36:59;;;;;;;10.82;6.35;;;4.20;49.40;;;;;;5071151;28;20071;-47
2022/03/08 07:39:26;;;;;;;6.63;5.63;;;4.30;49.30;;;;;;5070995;28;20040;-47
2022/03/08 07:41:54;;;;;;;7.25;5.28;;;4.30;49.30;;;;;;5070343;28;20048;-43
2022/03/08 07:44:23;;;;;;;8.25;5.28;;;4.40;49.20;;;;;;5076145;28;20040;-48
2022/03/08 07:46:51;;;;;;;6.90;5.82;;;4.40;49.10;;;;;;5061970;28;20072;-47
2022/03/08 07:49:18;;;;;;;6.88;5.78;;;4.50;49.00;;;;;;5051562;28;20071;-46
2022/03/08 07:51:49;;;;;;;10.75;5.85;;;4.50;48.90;;;;;;5076984;22;20048;-50
2022/03/08 07:54:16;;;;;;;7.65;5.18;;;4.60;48.90;;;;;;5054017;28;20059;-51
2022/03/08 07:56:43;;;;;;;6.55;5.18;;;4.70;48.80;;;;;;5055179;28;20053;-47
2022/03/08 07:59:11;;;;;;;6.13;5.07;;;4.70;48.70;;;;;;5044821;28;20060;-47
2022/03/08 08:01:37;;;;;;;7.13;5.15;;;4.80;48.60;;;;;;5032632;28;20206;-48
2022/03/08 08:04:04;;;;;;;8.35;5.80;;;4.80;48.50;;;;;;5044283;28;20132;-47
2022/03/08 08:06:31;;;;;;;7.95;6.15;;;4.90;48.40;;;;;;5041860;28;20041;-48
2022/03/08 08:08:58;;;;;;;7.57;5.13;;;5.00;48.40;;;;;;5045944;28;20455;-49
2022/03/08 08:11:25;;;;;;;6.60;5.68;;;5.00;48.30;;;;;;5044948;28;20033;-48
2022/03/08 08:13:53;;;;;;;6.45;5.47;;;5.10;48.30;;;;;;5056694;28;20044;-51
2022/03/08 08:16:20;;;;;;;9.05;5.63;;;5.10;48.80;;;;;;5052902;28;20516;-49
2022/03/08 08:18:47;;;;;;;7.70;6.03;;;5.20;48.20;;;;;;5026023;28;20111;-49
2022/03/08 08:21:14;;;;;;;6.90;5.25;;;5.20;48.10;;;;;;5061796;28;20067;-47
2022/03/08 08:23:41;;;;;;;7.57;4.88;;;5.30;48.00;;;;;;5063553;28;20064;-49
2022/03/08 08:26:07;;;;;;;6.72;5.53;;;5.30;48.00;;;;;;5055433;28;20107;-52
2022/03/08 08:28:34;;;;;;;8.90;5.47;;;5.40;47.90;;;;;;5048620;28;20037;-47
2022/03/08 08:31:01;;;;;;;8.98;5.95;;;5.40;47.90;;;;;;5054122;28;20598;-49
2022/03/08 08:33:28;;;;;;;6.30;5.70;;;5.50;47.80;;;;;;5057856;28;20490;-52
2022/03/08 08:35:56;;;;;;;10.60;6.07;;;5.60;47.80;;;;;;5061924;28;20048;-48
2022/03/08 08:38:23;;;;;;;8.45;6.13;;;5.60;47.70;;;;;;5059985;28;20068;-52
2022/03/08 08:40:50;;;;;;;10.10;6.32;;;5.70;47.90;;;;;;5048356;28;20103;-51
2022/03/08 08:43:17;;;;;;;14.07;6.07;;;5.70;47.80;;;;;;5062661;28;20154;-52
2022/03/08 08:45:43;;;;;;;7.00;6.03;;;5.80;47.60;;;;;;5070916;28;20044;-48
2022/03/08 08:48:10;;;;;;;9.52;6.20;;;5.90;47.50;;;;;;5054373;28;20049;-52
2022/03/08 08:50:37;;;;;;;9.98;6.22;;;5.90;47.40;;;;;;5045717;28;20548;-50
2022/03/08 08:53:04;;;;;;;6.10;5.50;;;6.00;47.30;;;;;;5038549;28;20045;-47
2022/03/08 08:55:33;;;;;;;21.40;6.82;;;6.00;47.30;;;;;;5039995;28;20037;-50
2022/03/08 08:58:00;;;;;;;7.30;5.60;;;6.10;47.30;;;;;;5041400;28;20099;-49
2022/03/08 09:00:27;;;;;;;10.68;6.82;;;6.20;47.20;;;;;;5049528;28;20076;-51
2022/03/08 09:02:54;;;;;;;10.27;6.22;;;6.20;47.10;;;;;;5044995;28;20120;-47
2022/03/08 09:05:21;;;;;;;9.13;7.00;;;6.30;47.00;;;;;;5040479;28;20121;-49
2022/03/08 09:07:48;;;;;;;9.40;5.40;;;6.30;46.80;;;;;;5039265;28;20174;-46
2022/03/08 09:10:16;;;;;;;7.60;5.50;;;6.40;46.80;;;;;;5054626;28;20507;-52
2022/03/08 09:12:43;;;;;;;9.52;5.72;;;6.40;46.70;;;;;;5062373;28;20098;-50
2022/03/08 09:15:10;;;;;;;7.45;5.57;;;6.50;46.50;;;;;;5066149;28;20090;-47
2022/03/08 09:17:37;;;;;;;8.27;5.63;;;6.60;46.50;;;;;;5054590;28;20501;-47
2022/03/08 09:20:07;;;;;;;8.85;6.30;;;6.60;46.50;;;;;;5047557;28;20049;-50
2022/03/08 09:22:34;;;;;;;7.50;5.32;;;6.70;46.20;;;;;;5050500;28;20045;-51
2022/03/08 09:25:01;;;;;;;8.38;5.88;;;6.80;46.30;;;;;;5046465;28;20049;-48
2022/03/08 09:27:30;;;;;;;11.32;6.07;;;6.80;45.80;;;;;;5044975;28;20504;-51
2022/03/08 09:29:57;;;;;;;7.18;5.45;;;6.90;45.90;;;;;;5058602;28;20041;-52
2022/03/08 09:32:24;;;;;;;7.55;5.45;;;7.00;45.60;;;;;;5062152;28;20095;-50
2022/03/08 09:34:51;;;;;;;14.27;5.72;;;7.00;45.50;;;;;;5038092;28;20070;-51
2022/03/08 09:37:17;;;;;;;8.57;5.88;;;7.10;45.60;;;;;;5047596;28;20068;-51
2022/03/08 09:39:44;;;;;;;8.35;5.38;;;7.10;45.30;;;;;;5049975;28;20041;-52
2022/03/08 09:42:11;;;;;;;5.82;4.78;;;7.20;45.00;;;;;;5069334;28;20040;-51
2022/03/08 09:44:38;;;;;;;11.55;5.38;;;7.30;44.90;;;;;;5053226;28;20097;-51
2022/03/08 09:47:05;;;;;;;8.65;5.38;;;7.30;44.80;;;;;;5047085;28;20045;-51
2022/03/08 09:49:32;;;;;;;13.20;5.22;;;7.40;44.70;;;;;;5052515;28;20099;-47
2022/03/08 09:51:59;;;;;;;10.75;4.80;;;7.50;44.40;;;;;;5066446;28;20106;-48
2022/03/08 09:54:26;;;;;;;14.88;5.55;;;7.50;44.40;;;;;;5066465;28;20454;-52
2022/03/08 09:56:53;;;;;;;8.38;5.07;;;7.60;44.40;;;;;;5054107;28;20780;-48
2022/03/08 09:59:20;;;;;;;16.45;5.30;;;7.60;44.30;;;;;;5044312;28;20094;-50
2022/03/08 10:01:48;;;;;;;13.02;4.53;;;7.70;44.50;;;;;;5031779;28;20420;-47
2022/03/08 10:04:17;;;;;;;10.07;4.65;;;7.70;43.90;;;;;;5053365;28;20044;-48
2022/03/08 10:07:11;;;;;;;8.15;4.93;;;7.80;44.00;;;;;;5059619;28;20045;-49
2022/03/08 10:09:39;;;;;;;10.65;5.05;;;7.90;43.60;;;;;;5048358;28;20045;-45
2022/03/08 10:12:17;;;;;;;9.75;5.50;;;7.90;43.70;;;;;;5048042;28;20051;-45
2022/03/08 10:14:44;;;;;;;8.52;4.85;;;8.00;43.20;;;;;;5060218;28;20098;-46
2022/03/08 10:17:35;;;;;;;9.88;4.55;;;8.10;43.40;;;;;;5056970;28;20045;-44
2022/03/08 10:20:03;;;;;;;6.40;3.97;;;8.10;43.10;;;;;;5027186;28;20049;-48
2022/03/08 10:22:33;;;;;;;7.63;3.83;;;8.20;43.30;;;;;;5038030;28;20041;-49
2022/03/08 10:25:22;;;;;;;6.97;4.20;;;8.30;43.00;;;;;;5049099;28;20150;-45
2022/03/08 10:27:54;;;;;;;7.22;4.70;;;8.30;42.50;;;;;;5053478;28;20037;-48
2022/03/08 10:30:44;;;;;;;9.45;4.25;;;8.40;42.50;;;;;;5054722;28;20045;-47
2022/03/08 10:33:19;;;;;;;6.40;4.30;;;8.50;41.60;;;;;;5048059;28;20124;-49
2022/03/08 10:35:53;;;;;;;7.43;4.30;;;8.50;42.20;;;;;;5059205;28;20476;-46
2022/03/08 10:38:20;;;;;;;6.38;4.30;;;8.60;42.00;;;;;;5041664;28;20116;-49
2022/03/08 10:40:47;;;;;;;6.35;4.25;;;8.70;42.00;;;;;;5042276;28;20045;-46
2022/03/08 10:43:17;;;;;;;3.85;3.38;;;8.70;41.90;;;;;;5034769;28;20055;-46
2022/03/08 10:45:46;;;;;;;4.57;3.78;;;8.80;42.30;;;;;;5057155;28;20037;-48
2022/03/08 10:48:17;;;;;;;6.75;3.70;;;8.90;42.30;;;;;;5068091;28;20462;-48
2022/03/08 10:50:45;;;;;;;5.43;4.15;;;8.90;41.50;;;;;;5054960;28;20381;-45
2022/03/08 10:53:13;;;;;;;5.72;4.00;;;9.00;41.30;;;;;;5062044;28;20064;-48
2022/03/08 10:55:48;;;;;;;8.70;4.55;;;9.10;41.60;;;;;;5051528;28;20057;-48
2022/03/08 10:58:17;;;;;;;6.68;4.40;;;9.10;40.60;;;;;;5049444;28;20094;-49
2022/03/08 11:00:54;;;;;;;5.25;4.13;;;9.20;41.20;;;;;;5038872;28;20439;-48
2022/03/08 11:03:24;;;;;;;8.25;3.97;;;9.20;40.80;;;;;;5053774;28;20127;-51
2022/03/08 11:05:55;;;;;;;6.30;4.35;;;9.30;40.50;;;;;;5059511;28;20033;-51
2022/03/08 11:08:28;;;;;;;5.68;4.20;;;9.40;40.80;;;;;;5031381;28;20037;-49
2022/03/08 11:10:55;;;;;;;4.53;4.03;;;9.40;40.50;;;;;;5055366;28;20056;-49
2022/03/08 11:13:22;;;;;;;6.07;4.20;;;9.40;40.20;;;;;;5060981;28;20143;-49
2022/03/08 11:15:49;;;;;;;8.60;4.43;;;9.50;40.10;;;;;;5059216;28;20041;-48
2022/03/08 11:18:17;;;;;;;5.47;3.85;;;9.60;40.10;;;;;;5046118;28;20040;-48
2022/03/08 11:20:46;;;;;;;5.63;4.68;;;9.60;40.00;;;;;;5039389;28;20078;-51
2022/03/08 11:23:13;;;;;;;5.75;4.43;;;9.70;40.00;;;;;;5059574;28;20497;-50
2022/03/08 11:25:44;;;;;;;5.22;4.43;;;9.70;39.80;;;;;;5056071;28;20091;-48
2022/03/08 11:28:18;;;;;;;6.47;5.03;;;9.80;40.00;;;;;;5051213;28;20047;-47
2022/03/08 11:30:48;;;;;;;7.47;4.70;;;9.80;39.60;;;;;;5053117;28;20033;-51
2022/03/08 11:33:38;;;;;;;5.45;4.72;;;9.90;39.70;;;;;;5043546;28;20093;-47
2022/03/08 11:36:23;;;;;;;6.15;4.28;;;9.90;39.40;;;;;;5047910;28;20598;-47
2022/03/08 11:39:14;;;;;;;5.47;4.50;;;10.00;39.40;;;;;;5043165;28;20076;-45
2022/03/08 11:41:43;;;;;;;5.70;4.07;;;10.10;39.70;;;;;;5042636;28;20055;-48
2022/03/08 11:44:24;;;;;;;5.95;4.40;;;10.10;39.70;;;;;;5054294;28;20098;-46
2022/03/08 11:47:13;;;;;;;4.57;4.10;;;10.10;39.00;;;;;;5049951;28;20041;-47
2022/03/08 11:49:40;;;;;;;8.48;4.07;;;10.20;39.10;;;;;;5056170;28;20037;-47
2022/03/08 11:52:27;;;;;;;6.38;3.65;;;10.30;39.50;;;;;;5057275;28;20227;-45
2022/03/08 11:55:03;;;;;;;9.52;4.50;;;10.30;38.90;;;;;;5043856;28;20041;-46
2022/03/08 11:57:49;;;;;;;7.47;5.22;;;10.30;38.70;;;;;;5030623;28;20098;-49
2022/03/08 12:00:35;;;;;;;8.75;4.82;;;10.40;38.50;;;;;;5053976;28;20044;-46
2022/03/08 12:03:06;;;;;;;5.85;4.13;;;10.40;39.20;;;;;;5045180;28;20067;-46
2022/03/08 12:05:53;;;;;;;3.92;3.13;;;10.40;39.30;;;;;;5030487;28;20110;-45
2022/03/08 12:08:29;;;;;;;9.05;4.60;;;10.50;38.60;;;;;;5054383;28;20499;-46
2022/03/08 12:11:05;;;;;;;6.60;4.15;;;10.50;38.80;;;;;;5048792;28;20041;-46
2022/03/08 12:13:47;;;;;;;6.28;4.18;;;10.60;38.90;;;;;;5039991;28;20041;-46
2022/03/08 12:16:24;;;;;;;5.63;4.75;;;10.60;38.80;;;;;;5042942;28;20045;-48
2022/03/08 12:19:00;;;;;;;8.40;4.72;;;10.70;38.80;;;;;;5046887;28;20041;-46
2022/03/08 12:21:29;;;;;;;5.40;4.53;;;10.80;38.50;;;;;;5044427;28;20397;-45
2022/03/08 12:23:59;;;;;;;7.20;5.05;;;10.80;39.00;;;;;;5040417;28;20048;-49
2022/03/08 12:26:29;;;;;;;8.18;4.38;;;10.80;39.10;;;;;;5046466;28;20067;-49
2022/03/08 12:29:30;;;;;;;6.65;4.60;;;10.90;38.80;;;;;;5037893;28;20389;-49
2022/03/08 12:31:57;;;;;;;5.93;4.70;;;11.00;38.70;;;;;;5038666;28;20452;-48
2022/03/08 12:34:33;;;;;;;8.27;4.63;;;11.00;38.60;;;;;;5041237;28;20045;-48
2022/03/08 12:37:51;;;;;;;4.88;4.47;;;11.10;38.30;;;;;;5048672;28;20147;-49
2022/03/08 12:40:20;;;;;;;4.75;4.22;;;11.10;38.10;;;;;;5044045;28;20048;-46
2022/03/08 12:42:56;;;;;;;6.43;4.70;;;11.20;38.10;;;;;;5039953;28;20045;-50
2022/03/08 12:45:29;;;;;;;5.20;4.70;;;11.20;37.60;;;;;;5048728;28;20040;-51
2022/03/08 12:48:02;;;;;;;7.53;4.63;;;11.30;37.40;;;;;;5044053;28;20057;-48
2022/03/08 12:50:29;;;;;;;6.90;4.63;;;11.30;37.60;;;;;;5035993;28;20037;-51
2022/03/08 12:52:59;;;;;;;7.13;4.45;;;11.40;37.80;;;;;;5047540;28;20715;-51
2022/03/08 12:55:32;;;;;;;8.40;4.70;;;11.40;37.80;;;;;;5051825;28;20523;-51
2022/03/08 12:58:02;;;;;;;8.45;4.25;;;11.50;37.30;;;;;;5062533;28;20408;-52
2022/03/08 13:00:34;;;;;;;13.02;5.63;;;11.50;37.30;;;;;;5069796;28;20143;-51
2022/03/08 13:03:02;;;;;;;5.20;4.50;;;11.60;37.20;;;;;;5046825;28;20048;-52
2022/03/08 13:05:35;;;;;;;9.63;5.50;;;11.60;37.30;;;;;;5056569;28;20045;-51